createdAt,value
2018-09-05T00:00:19.286Z,82.00
2018-09-05T00:03:52.776Z,82.10
2018-09-05T00:07:26.011Z,82.10
2018-09-05T00:10:59.319Z,82.20
2018-09-05T00:14:32.544Z,82.50
2018-09-05T00:18:05.781Z,82.60
2018-09-05T00:21:39.028Z,82.80
2018-09-05T00:25:12.256Z,83.00
2018-09-05T00:28:45.487Z,83.10
2018-09-05T00:32:18.712Z,83.20
2018-09-05T00:35:51.961Z,83.50
2018-09-05T00:39:25.918Z,83.60
2018-09-05T00:42:59.146Z,83.70
2018-09-05T00:46:32.375Z,83.60
2018-09-05T00:50:06.013Z,83.60
2018-09-05T00:53:39.239Z,83.80
2018-09-05T00:57:12.480Z,83.90
2018-09-05T01:00:45.705Z,84.20
2018-09-05T01:04:18.936Z,84.30
2018-09-05T01:07:52.172Z,84.50
2018-09-05T01:11:25.404Z,84.70
2018-09-05T01:14:58.622Z,84.80
2018-09-05T01:18:31.844Z,84.80
2018-09-05T01:22:05.075Z,84.80
2018-09-05T01:25:38.318Z,84.70
2018-09-05T01:29:11.643Z,84.50
2018-09-05T01:32:44.875Z,84.70
2018-09-05T01:36:18.927Z,84.70
2018-09-05T01:39:52.787Z,84.80
2018-09-05T01:43:26.049Z,85.00
2018-09-05T01:46:59.280Z,85.00
2018-09-05T01:50:37.819Z,85.20
2018-09-05T01:54:11.077Z,85.20
2018-09-05T01:57:44.300Z,85.30
2018-09-05T02:01:17.539Z,85.50
2018-09-05T02:04:50.749Z,85.50
2018-09-05T02:08:24.019Z,85.70
2018-09-05T02:11:57.200Z,85.60
2018-09-05T02:15:30.658Z,85.60
2018-09-05T02:19:03.884Z,85.80
2018-09-05T02:22:37.123Z,85.90
2018-09-05T02:26:10.347Z,86.30
2018-09-05T02:29:43.563Z,86.80
2018-09-05T02:33:16.786Z,87.90
2018-09-05T02:36:50.018Z,87.40
2018-09-05T02:40:23.305Z,87.70
2018-09-05T02:44:01.880Z,87.90
2018-09-05T02:47:35.200Z,87.90
2018-09-05T02:51:08.408Z,88.10
2018-09-05T02:54:41.632Z,88.30
2018-09-05T02:58:14.843Z,88.30
2018-09-05T03:01:48.068Z,88.30
2018-09-05T03:05:21.283Z,88.00
2018-09-05T03:08:54.515Z,87.90
2018-09-05T03:12:27.725Z,88.00
2018-09-05T03:16:00.952Z,88.40
2018-09-05T03:19:34.166Z,88.60
2018-09-05T03:23:07.403Z,89.00
2018-09-05T03:26:40.620Z,89.20
2018-09-05T03:30:13.851Z,89.30
2018-09-05T03:33:47.056Z,89.40
2018-09-05T03:37:20.291Z,90.10
2018-09-05T03:40:53.515Z,89.80
2018-09-05T03:44:26.736Z,89.10
2018-09-05T03:47:59.964Z,88.90
2018-09-05T03:51:33.167Z,89.20
2018-09-05T03:55:06.550Z,89.40
2018-09-05T03:58:39.772Z,89.70
2018-09-05T04:02:12.996Z,90.00
2018-09-05T04:05:46.221Z,90.10
2018-09-05T04:09:19.468Z,90.10
2018-09-05T04:12:52.691Z,90.30
2018-09-05T04:16:25.915Z,90.50
2018-09-05T04:19:59.208Z,90.70
2018-09-05T04:23:37.499Z,90.70
2018-09-05T04:27:10.747Z,90.50
2018-09-05T04:30:43.976Z,90.40
2018-09-05T04:34:17.195Z,90.50
2018-09-05T04:37:50.431Z,90.50
2018-09-05T04:41:23.675Z,90.50
2018-09-05T04:44:56.911Z,90.50
2018-09-05T04:48:30.184Z,90.50
2018-09-05T04:52:03.424Z,90.50
2018-09-05T04:55:36.655Z,90.70
2018-09-05T04:59:09.928Z,90.70
2018-09-05T05:02:43.143Z,90.90
2018-09-05T05:06:16.817Z,90.80
2018-09-05T05:09:50.055Z,90.60
2018-09-05T05:13:23.279Z,90.50
2018-09-05T05:16:56.503Z,90.60
2018-09-05T05:20:29.736Z,90.60
2018-09-05T05:24:02.985Z,90.60
2018-09-05T05:27:36.203Z,90.70
2018-09-05T05:31:09.424Z,90.50
2018-09-05T05:34:42.668Z,90.50
2018-09-05T05:38:15.920Z,90.60
2018-09-05T05:41:49.147Z,91.10
2018-09-05T05:45:22.384Z,90.80
2018-09-05T05:48:55.631Z,91.10
2018-09-05T05:52:29.201Z,91.10
2018-09-05T05:56:02.547Z,91.10
2018-09-05T05:59:35.787Z,91.10
2018-09-05T06:03:09.016Z,91.10
2018-09-05T06:06:42.237Z,91.10
2018-09-05T06:10:15.471Z,90.70
2018-09-05T06:13:48.711Z,90.60
2018-09-05T06:17:21.999Z,90.70
2018-09-05T06:20:55.258Z,90.90
2018-09-05T06:24:28.483Z,90.80
2018-09-05T06:28:01.704Z,90.80
2018-09-05T06:31:34.921Z,90.50
2018-09-05T06:35:08.207Z,90.20
2018-09-05T06:38:41.531Z,90.20
2018-09-05T06:42:15.054Z,89.90
2018-09-05T06:45:48.277Z,90.00
2018-09-05T06:49:21.498Z,89.90
2018-09-05T06:52:54.748Z,89.90
2018-09-05T06:56:27.962Z,88.80
2018-09-05T07:00:01.240Z,88.40
2018-09-05T07:03:34.532Z,88.20
2018-09-05T07:07:07.774Z,87.30
2018-09-05T07:10:40.964Z,87.20
2018-09-05T07:14:14.213Z,86.70
2018-09-05T07:17:47.429Z,85.80
2018-09-05T07:21:20.689Z,85.60
2018-09-05T07:24:53.901Z,85.10
2018-09-05T07:28:27.136Z,84.70
2018-09-05T07:32:00.733Z,84.80
2018-09-05T07:35:33.961Z,84.60
2018-09-05T07:39:08.612Z,84.50
2018-09-05T07:42:41.830Z,84.20
2018-09-05T07:46:15.043Z,83.40
2018-09-05T07:49:48.267Z,83.70
2018-09-05T07:53:21.495Z,83.50
2018-09-05T07:56:54.713Z,82.90
2018-09-05T08:00:27.917Z,81.80
2018-09-05T08:04:01.149Z,81.40
2018-09-05T08:07:34.420Z,80.60
2018-09-05T08:11:07.637Z,79.90
2018-09-05T08:14:40.858Z,79.50
2018-09-05T08:18:14.136Z,78.90
2018-09-05T08:21:47.341Z,78.80
2018-09-05T08:25:20.556Z,78.60
2018-09-05T08:28:53.891Z,78.80
2018-09-05T08:32:27.068Z,79.00
2018-09-05T08:36:00.578Z,79.30
2018-09-05T08:39:33.517Z,79.70
2018-09-05T08:43:06.783Z,80.10
2018-09-05T08:46:39.988Z,80.30
2018-09-05T08:50:13.224Z,80.20
2018-09-05T08:53:46.804Z,79.90
2018-09-05T08:57:20.049Z,79.20
2018-09-05T09:00:53.260Z,79.00
2018-09-05T09:04:26.551Z,78.60
2018-09-05T09:07:59.779Z,78.00
2018-09-05T09:11:33.045Z,77.10
2018-09-05T09:15:06.257Z,76.40
2018-09-05T09:18:39.483Z,75.80
2018-09-05T09:22:12.729Z,75.50
2018-09-05T09:25:45.987Z,75.20
2018-09-05T09:29:19.192Z,74.70
2018-09-05T09:32:52.433Z,74.00
2018-09-05T09:36:25.657Z,73.30
2018-09-05T09:39:58.883Z,72.70
2018-09-05T09:43:32.113Z,72.50
2018-09-05T09:47:05.355Z,71.70
2018-09-05T09:50:38.606Z,70.80
2018-09-05T09:54:11.837Z,70.20
2018-09-05T09:57:45.056Z,69.50
2018-09-05T10:01:23.813Z,69.10
2018-09-05T10:05:02.504Z,68.90
2018-09-05T10:08:40.979Z,68.60
2018-09-05T10:12:19.767Z,68.40
2018-09-05T10:15:58.356Z,68.30
2018-09-05T10:19:31.578Z,67.90
2018-09-05T10:23:04.790Z,65.90
2018-09-05T10:26:38.037Z,64.90
2018-09-05T10:30:11.252Z,63.90
2018-09-05T10:33:44.487Z,62.70
2018-09-05T10:37:17.732Z,62.80
2018-09-05T10:40:50.957Z,62.20
2018-09-05T10:44:24.248Z,61.70
2018-09-05T10:47:57.398Z,61.80
2018-09-05T10:51:36.155Z,61.00
2018-09-05T10:55:09.353Z,60.20
2018-09-05T10:58:42.599Z,60.40
2018-09-05T11:02:15.818Z,59.50
2018-09-05T11:05:49.039Z,59.50
2018-09-05T11:09:22.259Z,58.90
2018-09-05T11:12:55.496Z,58.70
2018-09-05T11:16:28.712Z,58.80
2018-09-05T11:20:01.925Z,58.50
2018-09-05T11:23:35.618Z,58.40
2018-09-05T11:27:08.843Z,57.80
2018-09-05T11:30:42.071Z,57.00
2018-09-05T11:34:15.283Z,56.00
2018-09-05T11:37:48.527Z,56.20
2018-09-05T11:41:22.111Z,56.00
2018-09-05T11:44:55.330Z,55.80
2018-09-05T11:48:28.556Z,55.30
2018-09-05T11:52:01.819Z,55.10
2018-09-05T11:55:35.047Z,55.20
2018-09-05T11:59:08.471Z,55.40
2018-09-05T12:02:41.706Z,55.40
2018-09-05T12:06:14.931Z,55.60
2018-09-05T12:09:48.160Z,54.40
2018-09-05T12:13:21.438Z,54.20
2018-09-05T12:16:54.672Z,53.60
2018-09-05T12:20:27.892Z,53.20
2018-09-05T12:24:01.108Z,52.80
2018-09-05T12:27:34.343Z,52.00
2018-09-05T12:31:07.563Z,50.90
2018-09-05T12:34:40.774Z,50.70
2018-09-05T12:38:14.025Z,49.70
2018-09-05T12:41:47.229Z,48.90
2018-09-05T12:45:20.458Z,48.30
2018-09-05T12:48:53.680Z,48.00
2018-09-05T12:52:26.909Z,47.70
2018-09-05T12:56:00.129Z,46.70
2018-09-05T12:59:33.364Z,46.30
2018-09-05T13:03:06.590Z,45.70
2018-09-05T13:06:39.815Z,45.30
2018-09-05T13:10:13.034Z,45.60
2018-09-05T13:13:46.566Z,46.20
2018-09-05T13:17:19.821Z,46.50
2018-09-05T13:20:53.046Z,46.80
2018-09-05T13:24:26.268Z,46.80
2018-09-05T13:28:31.167Z,47.30
2018-09-05T13:32:04.382Z,47.20
2018-09-05T13:35:37.601Z,47.30
2018-09-05T13:39:11.736Z,47.20
2018-09-05T13:42:44.954Z,47.70
2018-09-05T13:46:18.164Z,46.80
2018-09-05T13:49:51.375Z,46.80
2018-09-05T13:53:24.584Z,47.00
2018-09-05T13:56:58.471Z,46.80
2018-09-05T14:00:31.699Z,46.60
2018-09-05T14:04:04.958Z,46.50
2018-09-05T14:07:38.224Z,46.40
2018-09-05T14:11:11.443Z,46.20
2018-09-05T14:14:44.671Z,46.10
2018-09-05T14:18:17.875Z,46.60
2018-09-05T14:21:51.139Z,46.50
2018-09-05T14:25:24.436Z,46.40
2018-09-05T14:28:57.663Z,46.40
2018-09-05T14:32:30.895Z,46.00
2018-09-05T14:36:04.118Z,45.70
2018-09-05T14:39:37.371Z,45.70
2018-09-05T14:43:10.593Z,45.40
2018-09-05T14:46:43.814Z,45.20
2018-09-05T14:50:17.058Z,44.80
2018-09-05T14:53:50.296Z,44.90
2018-09-05T14:57:23.690Z,44.00
2018-09-05T15:00:56.924Z,43.50
2018-09-05T15:04:30.153Z,43.60
2018-09-05T15:08:03.363Z,43.50
2018-09-05T15:11:36.583Z,43.10
2018-09-05T15:15:09.807Z,42.80
2018-09-05T15:18:43.467Z,42.90
2018-09-05T15:22:16.678Z,42.80
2018-09-05T15:25:49.896Z,42.50
2018-09-05T15:29:23.120Z,42.40
2018-09-05T15:32:56.400Z,42.50
2018-09-05T15:36:29.668Z,42.30
2018-09-05T15:40:02.920Z,42.20
2018-09-05T15:43:36.148Z,41.90
2018-09-05T15:47:09.427Z,41.50
2018-09-05T15:50:43.316Z,41.30
2018-09-05T15:54:16.541Z,40.80
2018-09-05T15:57:49.760Z,40.70
2018-09-05T16:01:22.963Z,40.60
2018-09-05T16:04:56.215Z,40.50
2018-09-05T16:08:29.480Z,40.50
2018-09-05T16:12:02.691Z,40.60
2018-09-05T16:15:36.061Z,40.70
2018-09-05T16:19:09.176Z,40.50
2018-09-05T16:22:42.465Z,40.90
2018-09-05T16:26:15.676Z,41.50
2018-09-05T16:29:49.019Z,42.00
2018-09-05T16:33:22.200Z,42.60
2018-09-05T16:36:55.408Z,43.10
2018-09-05T16:40:28.702Z,43.20
2018-09-05T16:44:01.926Z,43.70
2018-09-05T16:47:35.170Z,44.20
2018-09-05T16:51:08.855Z,44.40
2018-09-05T16:54:42.127Z,44.50
2018-09-05T16:58:15.351Z,44.90
2018-09-05T17:01:48.579Z,45.20
2018-09-05T17:05:21.786Z,45.60
2018-09-05T17:08:55.045Z,45.90
2018-09-05T17:12:28.267Z,46.00
2018-09-05T17:16:01.471Z,46.40
2018-09-05T17:19:34.679Z,46.70
2018-09-05T17:23:07.912Z,46.90
2018-09-05T17:26:41.141Z,47.30
2018-09-05T17:30:14.346Z,47.70
2018-09-05T17:33:47.564Z,48.10
2018-09-05T17:37:20.908Z,48.40
2018-09-05T17:40:54.111Z,48.70
2018-09-05T17:44:27.345Z,49.10
2018-09-05T17:48:00.547Z,49.40
2018-09-05T17:51:33.757Z,49.90
2018-09-05T17:55:06.951Z,50.30
2018-09-05T17:58:40.205Z,50.60
2018-09-05T18:02:13.403Z,51.20
2018-09-05T18:05:46.605Z,51.50
2018-09-05T18:09:19.821Z,51.70
2018-09-05T18:12:53.031Z,52.10
2018-09-05T18:16:26.255Z,52.70
2018-09-05T18:19:59.460Z,53.30
2018-09-05T18:23:32.682Z,53.80
2018-09-05T18:27:05.943Z,54.30
2018-09-05T18:30:39.171Z,54.70
2018-09-05T18:34:12.363Z,55.30
2018-09-05T18:37:45.563Z,55.70
2018-09-05T18:41:18.784Z,56.30
2018-09-05T18:44:52.011Z,56.70
2018-09-05T18:48:25.214Z,57.60
2018-09-05T18:51:58.428Z,57.40
2018-09-05T18:55:31.726Z,57.30
2018-09-05T18:59:04.999Z,57.50
2018-09-05T19:02:38.218Z,57.80
2018-09-05T19:06:11.968Z,58.20
2018-09-05T19:09:45.176Z,58.60
2018-09-05T19:13:18.443Z,59.00
2018-09-05T19:16:51.760Z,59.30
2018-09-05T19:20:25.113Z,59.80
2018-09-05T19:23:58.384Z,60.00
2018-09-05T19:27:31.627Z,60.50
2018-09-05T19:31:05.037Z,61.90
2018-09-05T19:34:38.248Z,61.50
2018-09-05T19:38:11.491Z,62.00
2018-09-05T19:41:44.791Z,62.40
2018-09-05T19:45:18.033Z,62.90
2018-09-05T19:48:51.330Z,63.40
2018-09-05T19:52:24.544Z,63.80
2018-09-05T19:55:57.769Z,64.50
2018-09-05T19:59:30.974Z,64.30
2018-09-05T20:03:05.656Z,64.60
2018-09-05T20:06:38.898Z,65.10
2018-09-05T20:10:12.101Z,65.30
2018-09-05T20:13:45.311Z,65.80
2018-09-05T20:17:18.880Z,66.10
2018-09-05T20:20:52.634Z,66.60
2018-09-05T20:24:25.851Z,67.00
2018-09-05T20:27:59.070Z,67.50
2018-09-05T20:31:32.286Z,67.90
2018-09-05T20:35:05.770Z,68.30
2018-09-05T20:38:39.056Z,68.70
2018-09-05T20:42:12.986Z,69.00
2018-09-05T20:45:46.803Z,69.00
2018-09-05T20:49:20.147Z,69.20
2018-09-05T20:52:53.407Z,69.50
2018-09-05T20:56:27.438Z,69.70
2018-09-05T21:00:01.679Z,70.10
2018-09-05T21:03:35.091Z,70.50
2018-09-05T21:07:08.299Z,70.80
2018-09-05T21:10:41.593Z,71.00
2018-09-05T21:14:14.824Z,71.30
2018-09-05T21:17:48.139Z,71.60
2018-09-05T21:21:21.352Z,72.20
2018-09-05T21:24:54.615Z,72.60
2018-09-05T21:28:27.834Z,73.00
2018-09-05T21:32:01.051Z,73.10
2018-09-05T21:35:34.296Z,73.40
2018-09-05T21:39:08.826Z,74.40
2018-09-05T21:42:41.947Z,73.70
2018-09-05T21:46:15.142Z,74.00
2018-09-05T21:49:48.351Z,74.00
2018-09-05T21:53:21.567Z,74.50
2018-09-05T21:56:54.778Z,74.80
2018-09-05T22:00:28.003Z,75.10
2018-09-05T22:04:01.240Z,75.60
2018-09-05T22:07:34.428Z,76.10
2018-09-05T22:11:13.044Z,76.50
2018-09-05T22:14:46.255Z,76.60
2018-09-05T22:18:19.467Z,77.80
2018-09-05T22:21:52.659Z,77.20
2018-09-05T22:25:25.852Z,77.30
2018-09-05T22:28:59.060Z,77.50
2018-09-05T22:32:32.242Z,77.80
2018-09-05T22:36:05.820Z,77.80
2018-09-05T22:39:39.039Z,77.90
2018-09-05T22:43:23.635Z,78.10
2018-09-05T22:47:08.326Z,78.30
2018-09-05T22:52:00.562Z,78.30
2018-09-05T22:56:19.612Z,78.40
2018-09-05T23:01:06.564Z,78.60
2018-09-05T23:04:51.407Z,79.00
2018-09-05T23:08:32.664Z,79.20
2018-09-05T23:12:30.332Z,79.40
2018-09-05T23:16:14.966Z,79.30
2018-09-05T23:22:07.488Z,79.40
2018-09-05T23:25:40.717Z,79.00
2018-09-05T23:29:13.927Z,78.90
2018-09-05T23:32:47.149Z,79.50
2018-09-05T23:36:20.776Z,79.90
2018-09-05T23:39:53.998Z,80.10
2018-09-05T23:43:27.253Z,80.20
2018-09-05T23:47:00.485Z,80.10
2018-09-05T23:50:33.726Z,79.80
2018-09-05T23:54:06.954Z,79.20
2018-09-05T23:57:40.185Z,79.00
